Archival Weather

Biggin Hill

Biggin Hill, United Kingdom (EGKB)

Report from: Sunday, September 25, 2022 1:20 PM BST
Current time: Saturday, March 2, 2024 9:37 AM GMT

Current weather – Weather history – Daily summaries
Weather forecast

Temperature15.0°C (59.0°F)
Dew point3.0°C (37.4°F)
Winds 6 kts (3.1 m/s, 6.9 mph) Vrb
Winds variableWinds variable from Northwest (310°) to East-Northeast (60°)
Visibility6.2 mi. (10 km)
Clouds Scattered clouds 4,500 ft. (1,372 m)
Altimeter30.09 in.Hg (1019 mB)
Relative humidity44 %
Density altitude-80 ft. (-24 m)
Flight conditions Visual Meteorological Conditions
Raw dataEGKB 251220Z 01006KT 310V060 9999 SCT045 15/03 Q1019
An error has occurred. This application may no longer respond until reloaded. Reload 🗙